sensor_id;sensor_type;location;lat;lon;timestamp;P1;durP1;ratioP1;P2;durP2;ratioP2
27025;SDS011;14565;48.626;8.978;2022-10-16T00:01:17;2.72;;;1.15;;
27025;SDS011;14565;48.626;8.978;2022-10-16T00:03:44;4.35;;;1.13;;
27025;SDS011;14565;48.626;8.978;2022-10-16T00:06:12;2.75;;;1.23;;
27025;SDS011;14565;48.626;8.978;2022-10-16T00:08:38;3.97;;;1.35;;
27025;SDS011;14565;48.626;8.978;2022-10-16T00:11:08;2.63;;;1.48;;
27025;SDS011;14565;48.626;8.978;2022-10-16T00:13:39;1.95;;;1.20;;
27025;SDS011;14565;48.626;8.978;2022-10-16T00:16:06;4.57;;;1.40;;
27025;SDS011;14565;48.626;8.978;2022-10-16T00:18:33;2.33;;;1.30;;
27025;SDS011;14565;48.626;8.978;2022-10-16T00:21:03;2.17;;;1.35;;
27025;SDS011;14565;48.626;8.978;2022-10-16T00:23:33;3.08;;;1.17;;
27025;SDS011;14565;48.626;8.978;2022-10-16T00:26:04;3.33;;;1.30;;
27025;SDS011;14565;48.626;8.978;2022-10-16T00:28:31;4.15;;;1.33;;
27025;SDS011;14565;48.626;8.978;2022-10-16T00:30:57;4.00;;;1.50;;
27025;SDS011;14565;48.626;8.978;2022-10-16T00:33:23;4.40;;;1.48;;
27025;SDS011;14565;48.626;8.978;2022-10-16T00:35:49;6.53;;;1.40;;
27025;SDS011;14565;48.626;8.978;2022-10-16T00:38:15;2.30;;;1.15;;
27025;SDS011;14565;48.626;8.978;2022-10-16T00:40:41;2.38;;;1.10;;
27025;SDS011;14565;48.626;8.978;2022-10-16T00:46:12;5.95;;;1.30;;
27025;SDS011;14565;48.626;8.978;2022-10-16T00:48:38;3.05;;;1.35;;
27025;SDS011;14565;48.626;8.978;2022-10-16T00:51:04;4.63;;;1.13;;
27025;SDS011;14565;48.626;8.978;2022-10-16T00:53:32;2.75;;;1.70;;
27025;SDS011;14565;48.626;8.978;2022-10-16T00:55:58;3.42;;;1.17;;
27025;SDS011;14565;48.626;8.978;2022-10-16T00:58:24;4.15;;;1.42;;
27025;SDS011;14565;48.626;8.978;2022-10-16T01:00:50;2.78;;;1.10;;
27025;SDS011;14565;48.626;8.978;2022-10-16T01:03:23;4.13;;;1.40;;
27025;SDS011;14565;48.626;8.978;2022-10-16T01:08:43;4.75;;;1.38;;
27025;SDS011;14565;48.626;8.978;2022-10-16T01:15:08;1.73;;;1.17;;
27025;SDS011;14565;48.626;8.978;2022-10-16T01:17:21;8.90;;;1.00;;
27025;SDS011;14565;48.626;8.978;2022-10-16T01:20:05;7.05;;;1.38;;
27025;SDS011;14565;48.626;8.978;2022-10-16T01:25:31;2.65;;;1.33;;
27025;SDS011;14565;48.626;8.978;2022-10-16T01:28:21;2.08;;;0.93;;
27025;SDS011;14565;48.626;8.978;2022-10-16T01:30:52;8.35;;;1.58;;
27025;SDS011;14565;48.626;8.978;2022-10-16T01:33:24;1.92;;;1.40;;
27025;SDS011;14565;48.626;8.978;2022-10-16T01:35:56;2.47;;;1.10;;
27025;SDS011;14565;48.626;8.978;2022-10-16T01:38:34;1.60;;;1.13;;
27025;SDS011;14565;48.626;8.978;2022-10-16T01:44:19;2.55;;;1.10;;
27025;SDS011;14565;48.626;8.978;2022-10-16T01:46:52;3.45;;;1.20;;
27025;SDS011;14565;48.626;8.978;2022-10-16T01:49:19;2.40;;;1.30;;
27025;SDS011;14565;48.626;8.978;2022-10-16T01:51:48;5.10;;;1.10;;
27025;SDS011;14565;48.626;8.978;2022-10-16T01:54:17;2.58;;;1.35;;
27025;SDS011;14565;48.626;8.978;2022-10-16T01:56:45;1.92;;;1.02;;
27025;SDS011;14565;48.626;8.978;2022-10-16T01:59:13;2.67;;;1.00;;
27025;SDS011;14565;48.626;8.978;2022-10-16T02:01:42;1.95;;;1.13;;
27025;SDS011;14565;48.626;8.978;2022-10-16T02:04:15;4.20;;;1.27;;
27025;SDS011;14565;48.626;8.978;2022-10-16T02:06:44;7.45;;;1.38;;
27025;SDS011;14565;48.626;8.978;2022-10-16T02:09:09;7.07;;;1.88;;
27025;SDS011;14565;48.626;8.978;2022-10-16T02:11:35;3.28;;;1.27;;
27025;SDS011;14565;48.626;8.978;2022-10-16T02:14:02;2.40;;;1.40;;
27025;SDS011;14565;48.626;8.978;2022-10-16T02:16:38;3.45;;;1.17;;
27025;SDS011;14565;48.626;8.978;2022-10-16T02:19:05;5.75;;;1.15;;
27025;SDS011;14565;48.626;8.978;2022-10-16T02:21:43;6.15;;;1.30;;
27025;SDS011;14565;48.626;8.978;2022-10-16T02:29:33;1.88;;;1.27;;
27025;SDS011;14565;48.626;8.978;2022-10-16T02:32:04;5.32;;;1.52;;
27025;SDS011;14565;48.626;8.978;2022-10-16T02:34:32;2.05;;;1.10;;
27025;SDS011;14565;48.626;8.978;2022-10-16T02:36:59;4.95;;;1.40;;
27025;SDS011;14565;48.626;8.978;2022-10-16T02:39:28;2.88;;;1.10;;
27025;SDS011;14565;48.626;8.978;2022-10-16T02:41:54;2.03;;;1.17;;
27025;SDS011;14565;48.626;8.978;2022-10-16T02:44:20;3.40;;;1.20;;
27025;SDS011;14565;48.626;8.978;2022-10-16T02:46:45;2.78;;;1.17;;
27025;SDS011;14565;48.626;8.978;2022-10-16T02:49:11;4.90;;;1.30;;
27025;SDS011;14565;48.626;8.978;2022-10-16T02:51:37;4.20;;;1.30;;
27025;SDS011;14565;48.626;8.978;2022-10-16T02:54:02;4.53;;;1.10;;
27025;SDS011;14565;48.626;8.978;2022-10-16T02:56:28;3.30;;;1.10;;
27025;SDS011;14565;48.626;8.978;2022-10-16T02:58:55;3.20;;;1.20;;
27025;SDS011;14565;48.626;8.978;2022-10-16T03:01:20;3.28;;;1.10;;
27025;SDS011;14565;48.626;8.978;2022-10-16T03:03:46;2.42;;;1.10;;
27025;SDS011;14565;48.626;8.978;2022-10-16T03:06:12;1.65;;;1.27;;
27025;SDS011;14565;48.626;8.978;2022-10-16T03:08:37;4.80;;;1.27;;
27025;SDS011;14565;48.626;8.978;2022-10-16T03:11:04;2.95;;;1.20;;
27025;SDS011;14565;48.626;8.978;2022-10-16T03:13:29;2.28;;;1.40;;
27025;SDS011;14565;48.626;8.978;2022-10-16T03:15:55;1.42;;;1.08;;
27025;SDS011;14565;48.626;8.978;2022-10-16T03:18:21;6.00;;;1.70;;
27025;SDS011;14565;48.626;8.978;2022-10-16T03:20:46;4.63;;;1.58;;
27025;SDS011;14565;48.626;8.978;2022-10-16T03:23:12;2.38;;;1.50;;
27025;SDS011;14565;48.626;8.978;2022-10-16T03:25:37;3.58;;;1.15;;
27025;SDS011;14565;48.626;8.978;2022-10-16T03:28:03;3.53;;;1.10;;
27025;SDS011;14565;48.626;8.978;2022-10-16T03:30:29;2.72;;;1.50;;
27025;SDS011;14565;48.626;8.978;2022-10-16T03:32:55;4.82;;;1.25;;
27025;SDS011;14565;48.626;8.978;2022-10-16T03:35:21;4.35;;;1.08;;
27025;SDS011;14565;48.626;8.978;2022-10-16T03:37:48;2.03;;;1.13;;
27025;SDS011;14565;48.626;8.978;2022-10-16T03:40:14;1.63;;;1.10;;
27025;SDS011;14565;48.626;8.978;2022-10-16T03:42:41;4.25;;;1.00;;
27025;SDS011;14565;48.626;8.978;2022-10-16T03:45:08;1.85;;;1.00;;
27025;SDS011;14565;48.626;8.978;2022-10-16T03:47:34;5.63;;;1.33;;
27025;SDS011;14565;48.626;8.978;2022-10-16T03:49:59;2.67;;;0.95;;
27025;SDS011;14565;48.626;8.978;2022-10-16T03:52:25;4.57;;;1.50;;
27025;SDS011;14565;48.626;8.978;2022-10-16T03:54:51;3.10;;;1.20;;
27025;SDS011;14565;48.626;8.978;2022-10-16T03:57:17;2.35;;;1.08;;
27025;SDS011;14565;48.626;8.978;2022-10-16T03:59:43;2.38;;;1.00;;
27025;SDS011;14565;48.626;8.978;2022-10-16T04:02:08;4.30;;;1.20;;
27025;SDS011;14565;48.626;8.978;2022-10-16T04:04:34;1.88;;;1.00;;
27025;SDS011;14565;48.626;8.978;2022-10-16T04:07:00;3.90;;;1.10;;
27025;SDS011;14565;48.626;8.978;2022-10-16T04:09:26;3.90;;;1.38;;
27025;SDS011;14565;48.626;8.978;2022-10-16T04:11:52;3.65;;;0.90;;
27025;SDS011;14565;48.626;8.978;2022-10-16T04:14:17;1.33;;;0.95;;
27025;SDS011;14565;48.626;8.978;2022-10-16T04:16:43;7.30;;;1.25;;
27025;SDS011;14565;48.626;8.978;2022-10-16T04:19:09;3.28;;;1.10;;
27025;SDS011;14565;48.626;8.978;2022-10-16T04:21:36;3.70;;;1.27;;
27025;SDS011;14565;48.626;8.978;2022-10-16T04:24:01;1.55;;;1.10;;
27025;SDS011;14565;48.626;8.978;2022-10-16T04:26:27;2.53;;;1.00;;
27025;SDS011;14565;48.626;8.978;2022-10-16T04:28:53;1.70;;;1.10;;
27025;SDS011;14565;48.626;8.978;2022-10-16T04:31:19;2.13;;;1.30;;
27025;SDS011;14565;48.626;8.978;2022-10-16T04:33:45;2.65;;;1.15;;
27025;SDS011;14565;48.626;8.978;2022-10-16T04:36:10;4.03;;;1.15;;
27025;SDS011;14565;48.626;8.978;2022-10-16T04:38:36;2.20;;;1.30;;
27025;SDS011;14565;48.626;8.978;2022-10-16T04:41:02;2.65;;;1.20;;
27025;SDS011;14565;48.626;8.978;2022-10-16T04:43:28;2.28;;;0.95;;
27025;SDS011;14565;48.626;8.978;2022-10-16T04:45:54;2.85;;;1.10;;
27025;SDS011;14565;48.626;8.978;2022-10-16T04:48:21;1.77;;;1.20;;
27025;SDS011;14565;48.626;8.978;2022-10-16T04:50:47;3.67;;;1.20;;
27025;SDS011;14565;48.626;8.978;2022-10-16T04:53:13;1.20;;;1.10;;
27025;SDS011;14565;48.626;8.978;2022-10-16T04:55:39;1.67;;;1.17;;
27025;SDS011;14565;48.626;8.978;2022-10-16T04:58:06;5.67;;;1.50;;
27025;SDS011;14565;48.626;8.978;2022-10-16T05:00:32;2.20;;;1.13;;
27025;SDS011;14565;48.626;8.978;2022-10-16T05:02:58;4.30;;;1.30;;
27025;SDS011;14565;48.626;8.978;2022-10-16T05:05:25;3.53;;;1.38;;
27025;SDS011;14565;48.626;8.978;2022-10-16T05:07:51;6.55;;;1.20;;
27025;SDS011;14565;48.626;8.978;2022-10-16T05:10:18;2.15;;;1.27;;
27025;SDS011;14565;48.626;8.978;2022-10-16T05:12:46;4.05;;;1.27;;
27025;SDS011;14565;48.626;8.978;2022-10-16T05:15:11;3.28;;;1.17;;
27025;SDS011;14565;48.626;8.978;2022-10-16T05:17:37;3.25;;;1.33;;
27025;SDS011;14565;48.626;8.978;2022-10-16T05:20:03;1.20;;;1.10;;
27025;SDS011;14565;48.626;8.978;2022-10-16T05:22:29;2.45;;;1.17;;
27025;SDS011;14565;48.626;8.978;2022-10-16T05:24:54;4.53;;;1.40;;
27025;SDS011;14565;48.626;8.978;2022-10-16T05:27:20;3.22;;;1.38;;
27025;SDS011;14565;48.626;8.978;2022-10-16T05:29:46;2.40;;;1.20;;
27025;SDS011;14565;48.626;8.978;2022-10-16T05:32:13;2.00;;;1.20;;
27025;SDS011;14565;48.626;8.978;2022-10-16T05:34:40;4.03;;;1.98;;
27025;SDS011;14565;48.626;8.978;2022-10-16T05:37:05;3.67;;;1.30;;
27025;SDS011;14565;48.626;8.978;2022-10-16T05:39:31;2.60;;;1.50;;
27025;SDS011;14565;48.626;8.978;2022-10-16T05:41:57;2.50;;;1.38;;
27025;SDS011;14565;48.626;8.978;2022-10-16T05:44:22;2.22;;;1.40;;
27025;SDS011;14565;48.626;8.978;2022-10-16T05:46:48;4.03;;;1.42;;
27025;SDS011;14565;48.626;8.978;2022-10-16T05:49:14;2.40;;;1.40;;
27025;SDS011;14565;48.626;8.978;2022-10-16T05:51:40;4.35;;;1.52;;
27025;SDS011;14565;48.626;8.978;2022-10-16T05:54:06;3.45;;;1.60;;
27025;SDS011;14565;48.626;8.978;2022-10-16T05:56:32;2.80;;;1.33;;
27025;SDS011;14565;48.626;8.978;2022-10-16T05:58:58;3.97;;;1.40;;
27025;SDS011;14565;48.626;8.978;2022-10-16T06:01:23;2.42;;;1.48;;
27025;SDS011;14565;48.626;8.978;2022-10-16T06:03:52;2.75;;;1.20;;
27025;SDS011;14565;48.626;8.978;2022-10-16T06:06:22;6.10;;;1.23;;
27025;SDS011;14565;48.626;8.978;2022-10-16T06:08:51;5.57;;;1.30;;
27025;SDS011;14565;48.626;8.978;2022-10-16T06:11:19;2.97;;;1.83;;
27025;SDS011;14565;48.626;8.978;2022-10-16T06:13:53;2.85;;;1.80;;
27025;SDS011;14565;48.626;8.978;2022-10-16T06:16:21;3.25;;;1.70;;
27025;SDS011;14565;48.626;8.978;2022-10-16T06:18:50;5.95;;;1.50;;
27025;SDS011;14565;48.626;8.978;2022-10-16T06:21:18;2.60;;;1.30;;
27025;SDS011;14565;48.626;8.978;2022-10-16T06:23:46;7.00;;;1.38;;
27025;SDS011;14565;48.626;8.978;2022-10-16T06:26:13;4.05;;;1.40;;
27025;SDS011;14565;48.626;8.978;2022-10-16T06:31:06;1.92;;;1.40;;
27025;SDS011;14565;48.626;8.978;2022-10-16T06:33:33;3.13;;;1.30;;
27025;SDS011;14565;48.626;8.978;2022-10-16T06:36:00;5.18;;;1.45;;
27025;SDS011;14565;48.626;8.978;2022-10-16T06:38:27;5.68;;;1.35;;
27025;SDS011;14565;48.626;8.978;2022-10-16T06:40:53;2.70;;;1.10;;
27025;SDS011;14565;48.626;8.978;2022-10-16T06:43:19;8.98;;;1.13;;
27025;SDS011;14565;48.626;8.978;2022-10-16T06:45:50;4.32;;;1.17;;
27025;SDS011;14565;48.626;8.978;2022-10-16T06:48:19;1.60;;;1.00;;
27025;SDS011;14565;48.626;8.978;2022-10-16T06:50:58;6.35;;;1.30;;
27025;SDS011;14565;48.626;8.978;2022-10-16T06:53:26;2.97;;;1.20;;
27025;SDS011;14565;48.626;8.978;2022-10-16T06:55:53;2.13;;;0.93;;
27025;SDS011;14565;48.626;8.978;2022-10-16T06:58:19;2.53;;;1.30;;
27025;SDS011;14565;48.626;8.978;2022-10-16T07:00:45;1.88;;;1.40;;
27025;SDS011;14565;48.626;8.978;2022-10-16T07:05:43;1.98;;;1.10;;
27025;SDS011;14565;48.626;8.978;2022-10-16T07:08:09;2.65;;;0.90;;
27025;SDS011;14565;48.626;8.978;2022-10-16T07:10:35;6.78;;;1.38;;
27025;SDS011;14565;48.626;8.978;2022-10-16T07:13:01;6.20;;;1.38;;
27025;SDS011;14565;48.626;8.978;2022-10-16T07:15:27;2.65;;;1.35;;
27025;SDS011;14565;48.626;8.978;2022-10-16T07:17:53;1.92;;;0.98;;
27025;SDS011;14565;48.626;8.978;2022-10-16T07:20:19;3.05;;;1.27;;
27025;SDS011;14565;48.626;8.978;2022-10-16T07:22:45;3.15;;;1.42;;
27025;SDS011;14565;48.626;8.978;2022-10-16T07:25:11;3.67;;;1.20;;
27025;SDS011;14565;48.626;8.978;2022-10-16T07:27:36;4.43;;;1.52;;
27025;SDS011;14565;48.626;8.978;2022-10-16T07:30:02;5.38;;;1.20;;
27025;SDS011;14565;48.626;8.978;2022-10-16T07:32:29;2.95;;;1.20;;
27025;SDS011;14565;48.626;8.978;2022-10-16T07:34:54;4.32;;;1.30;;
27025;SDS011;14565;48.626;8.978;2022-10-16T07:37:20;3.25;;;1.30;;
27025;SDS011;14565;48.626;8.978;2022-10-16T07:39:46;2.67;;;1.27;;
27025;SDS011;14565;48.626;8.978;2022-10-16T07:42:12;5.90;;;1.15;;
27025;SDS011;14565;48.626;8.978;2022-10-16T07:44:38;2.78;;;1.40;;
27025;SDS011;14565;48.626;8.978;2022-10-16T07:47:04;3.17;;;1.20;;
27025;SDS011;14565;48.626;8.978;2022-10-16T07:49:30;2.40;;;1.30;;
27025;SDS011;14565;48.626;8.978;2022-10-16T07:51:56;2.03;;;1.15;;
27025;SDS011;14565;48.626;8.978;2022-10-16T07:54:22;4.05;;;1.45;;
27025;SDS011;14565;48.626;8.978;2022-10-16T07:56:47;4.03;;;1.30;;
27025;SDS011;14565;48.626;8.978;2022-10-16T07:59:13;3.75;;;1.13;;
27025;SDS011;14565;48.626;8.978;2022-10-16T08:01:38;1.73;;;1.30;;
27025;SDS011;14565;48.626;8.978;2022-10-16T08:04:05;2.42;;;1.30;;
27025;SDS011;14565;48.626;8.978;2022-10-16T08:06:34;6.25;;;1.30;;
27025;SDS011;14565;48.626;8.978;2022-10-16T08:09:01;3.45;;;1.10;;
27025;SDS011;14565;48.626;8.978;2022-10-16T08:11:27;2.97;;;1.20;;
27025;SDS011;14565;48.626;8.978;2022-10-16T08:13:53;3.40;;;1.25;;
27025;SDS011;14565;48.626;8.978;2022-10-16T08:16:19;4.38;;;1.35;;
27025;SDS011;14565;48.626;8.978;2022-10-16T08:18:45;1.88;;;1.20;;
27025;SDS011;14565;48.626;8.978;2022-10-16T08:21:15;1.50;;;1.10;;
27025;SDS011;14565;48.626;8.978;2022-10-16T08:23:43;3.85;;;1.38;;
27025;SDS011;14565;48.626;8.978;2022-10-16T08:26:09;3.80;;;1.15;;
27025;SDS011;14565;48.626;8.978;2022-10-16T08:28:36;2.05;;;1.20;;
27025;SDS011;14565;48.626;8.978;2022-10-16T08:33:38;4.32;;;1.02;;
27025;SDS011;14565;48.626;8.978;2022-10-16T08:36:05;3.95;;;1.35;;
27025;SDS011;14565;48.626;8.978;2022-10-16T08:38:32;1.80;;;1.05;;
27025;SDS011;14565;48.626;8.978;2022-10-16T08:41:08;2.38;;;1.20;;
27025;SDS011;14565;48.626;8.978;2022-10-16T08:48:52;4.43;;;1.20;;
27025;SDS011;14565;48.626;8.978;2022-10-16T08:51:21;5.43;;;1.20;;
27025;SDS011;14565;48.626;8.978;2022-10-16T08:56:41;2.70;;;1.30;;
27025;SDS011;14565;48.626;8.978;2022-10-16T08:59:09;9.07;;;1.00;;
27025;SDS011;14565;48.626;8.978;2022-10-16T09:01:40;3.60;;;1.00;;
27025;SDS011;14565;48.626;8.978;2022-10-16T09:07:11;1.42;;;1.10;;
27025;SDS011;14565;48.626;8.978;2022-10-16T09:10:28;2.45;;;1.10;;
27025;SDS011;14565;48.626;8.978;2022-10-16T09:18:24;3.88;;;1.25;;
27025;SDS011;14565;48.626;8.978;2022-10-16T09:23:31;4.05;;;1.42;;
27025;SDS011;14565;48.626;8.978;2022-10-16T09:26:00;5.25;;;1.15;;
27025;SDS011;14565;48.626;8.978;2022-10-16T09:28:27;3.70;;;1.30;;
27025;SDS011;14565;48.626;8.978;2022-10-16T09:30:53;3.03;;;0.80;;
27025;SDS011;14565;48.626;8.978;2022-10-16T09:33:20;2.90;;;1.20;;
27025;SDS011;14565;48.626;8.978;2022-10-16T09:35:51;1.92;;;1.20;;
27025;SDS011;14565;48.626;8.978;2022-10-16T09:40:58;8.43;;;1.48;;
27025;SDS011;14565;48.626;8.978;2022-10-16T09:43:27;2.65;;;1.30;;
27025;SDS011;14565;48.626;8.978;2022-10-16T09:46:02;5.70;;;1.08;;
27025;SDS011;14565;48.626;8.978;2022-10-16T09:48:44;6.85;;;1.08;;
27025;SDS011;14565;48.626;8.978;2022-10-16T09:51:21;2.13;;;1.08;;
27025;SDS011;14565;48.626;8.978;2022-10-16T09:54:21;3.72;;;1.02;;
27025;SDS011;14565;48.626;8.978;2022-10-16T09:56:46;1.00;;;0.90;;
27025;SDS011;14565;48.626;8.978;2022-10-16T09:59:20;1.70;;;1.00;;
27025;SDS011;14565;48.626;8.978;2022-10-16T10:01:54;3.92;;;1.20;;
27025;SDS011;14565;48.626;8.978;2022-10-16T10:04:21;2.97;;;1.25;;
27025;SDS011;14565;48.626;8.978;2022-10-16T10:06:49;3.85;;;1.25;;
27025;SDS011;14565;48.626;8.978;2022-10-16T10:09:23;2.05;;;1.15;;
27025;SDS011;14565;48.626;8.978;2022-10-16T10:11:54;3.95;;;1.10;;
27025;SDS011;14565;48.626;8.978;2022-10-16T10:16:46;2.75;;;1.13;;
27025;SDS011;14565;48.626;8.978;2022-10-16T10:19:22;1.40;;;1.05;;
27025;SDS011;14565;48.626;8.978;2022-10-16T10:21:49;5.40;;;1.00;;
27025;SDS011;14565;48.626;8.978;2022-10-16T10:24:18;4.53;;;1.10;;
27025;SDS011;14565;48.626;8.978;2022-10-16T10:26:53;1.48;;;1.00;;
27025;SDS011;14565;48.626;8.978;2022-10-16T10:29:35;4.05;;;1.10;;
27025;SDS011;14565;48.626;8.978;2022-10-16T10:46:04;4.10;;;1.10;;
27025;SDS011;14565;48.626;8.978;2022-10-16T10:54:06;2.15;;;1.00;;
27025;SDS011;14565;48.626;8.978;2022-10-16T11:02:21;3.13;;;1.10;;
27025;SDS011;14565;48.626;8.978;2022-10-16T11:07:57;3.25;;;1.20;;
27025;SDS011;14565;48.626;8.978;2022-10-16T11:10:28;2.03;;;1.20;;
27025;SDS011;14565;48.626;8.978;2022-10-16T11:13:25;2.95;;;1.13;;
27025;SDS011;14565;48.626;8.978;2022-10-16T11:16:27;3.22;;;1.10;;
27025;SDS011;14565;48.626;8.978;2022-10-16T11:24:41;7.10;;;1.20;;
27025;SDS011;14565;48.626;8.978;2022-10-16T11:27:14;2.83;;;0.95;;
27025;SDS011;14565;48.626;8.978;2022-10-16T11:29:53;2.50;;;1.02;;
27025;SDS011;14565;48.626;8.978;2022-10-16T11:32:34;2.50;;;1.10;;
27025;SDS011;14565;48.626;8.978;2022-10-16T11:35:12;6.78;;;1.10;;
27025;SDS011;14565;48.626;8.978;2022-10-16T11:37:44;3.58;;;1.13;;
27025;SDS011;14565;48.626;8.978;2022-10-16T11:40:19;1.50;;;1.10;;
27025;SDS011;14565;48.626;8.978;2022-10-16T11:43:29;2.20;;;1.30;;
27025;SDS011;14565;48.626;8.978;2022-10-16T11:45:55;4.82;;;1.40;;
27025;SDS011;14565;48.626;8.978;2022-10-16T11:51:16;3.58;;;1.23;;
27025;SDS011;14565;48.626;8.978;2022-10-16T11:59:02;2.25;;;1.10;;
27025;SDS011;14565;48.626;8.978;2022-10-16T12:01:41;3.83;;;1.30;;
27025;SDS011;14565;48.626;8.978;2022-10-16T12:04:20;3.33;;;1.27;;
27025;SDS011;14565;48.626;8.978;2022-10-16T12:07:18;1.92;;;1.13;;
27025;SDS011;14565;48.626;8.978;2022-10-16T12:09:49;5.60;;;1.20;;
27025;SDS011;14565;48.626;8.978;2022-10-16T12:15:03;3.45;;;1.38;;
27025;SDS011;14565;48.626;8.978;2022-10-16T12:17:44;1.63;;;1.30;;
27025;SDS011;14565;48.626;8.978;2022-10-16T12:20:18;5.82;;;1.25;;
27025;SDS011;14565;48.626;8.978;2022-10-16T12:22:54;2.75;;;1.23;;
27025;SDS011;14565;48.626;8.978;2022-10-16T12:25:38;4.35;;;1.20;;
27025;SDS011;14565;48.626;8.978;2022-10-16T12:30:40;3.40;;;1.38;;
27025;SDS011;14565;48.626;8.978;2022-10-16T12:33:19;2.28;;;1.25;;
27025;SDS011;14565;48.626;8.978;2022-10-16T12:35:47;2.17;;;1.02;;
27025;SDS011;14565;48.626;8.978;2022-10-16T12:38:17;3.00;;;1.42;;
27025;SDS011;14565;48.626;8.978;2022-10-16T12:46:35;2.90;;;1.30;;
27025;SDS011;14565;48.626;8.978;2022-10-16T12:49:04;4.68;;;1.48;;
27025;SDS011;14565;48.626;8.978;2022-10-16T12:51:50;3.40;;;1.30;;
27025;SDS011;14565;48.626;8.978;2022-10-16T13:21:23;2.97;;;1.20;;
27025;SDS011;14565;48.626;8.978;2022-10-16T13:26:34;2.55;;;1.48;;
27025;SDS011;14565;48.626;8.978;2022-10-16T13:29:20;3.90;;;1.50;;
27025;SDS011;14565;48.626;8.978;2022-10-16T13:31:46;4.00;;;1.17;;
27025;SDS011;14565;48.626;8.978;2022-10-16T13:34:19;3.40;;;1.50;;
27025;SDS011;14565;48.626;8.978;2022-10-16T13:36:51;2.38;;;1.35;;
27025;SDS011;14565;48.626;8.978;2022-10-16T13:44:31;2.25;;;1.20;;
27025;SDS011;14565;48.626;8.978;2022-10-16T13:47:22;1.83;;;1.27;;
27025;SDS011;14565;48.626;8.978;2022-10-16T13:52:47;2.83;;;2.00;;
27025;SDS011;14565;48.626;8.978;2022-10-16T13:55:15;23.92;;;15.25;;
27025;SDS011;14565;48.626;8.978;2022-10-16T13:57:42;17.80;;;10.32;;
27025;SDS011;14565;48.626;8.978;2022-10-16T14:02:43;16.08;;;11.27;;
27025;SDS011;14565;48.626;8.978;2022-10-16T14:05:09;10.38;;;6.53;;
27025;SDS011;14565;48.626;8.978;2022-10-16T14:07:35;5.63;;;3.80;;
27025;SDS011;14565;48.626;8.978;2022-10-16T14:10:04;2.80;;;2.53;;
27025;SDS011;14565;48.626;8.978;2022-10-16T14:12:32;3.78;;;3.47;;
27025;SDS011;14565;48.626;8.978;2022-10-16T14:14:58;4.20;;;2.33;;
27025;SDS011;14565;48.626;8.978;2022-10-16T14:17:28;4.80;;;3.20;;
27025;SDS011;14565;48.626;8.978;2022-10-16T14:19:58;2.25;;;2.05;;
27025;SDS011;14565;48.626;8.978;2022-10-16T14:28:02;3.47;;;1.90;;
27025;SDS011;14565;48.626;8.978;2022-10-16T14:30:29;2.45;;;1.80;;
27025;SDS011;14565;48.626;8.978;2022-10-16T14:32:58;3.00;;;1.70;;
27025;SDS011;14565;48.626;8.978;2022-10-16T14:38:01;2.08;;;1.58;;
27025;SDS011;14565;48.626;8.978;2022-10-16T14:40:30;1.83;;;1.33;;
27025;SDS011;14565;48.626;8.978;2022-10-16T14:42:57;1.83;;;1.48;;
27025;SDS011;14565;48.626;8.978;2022-10-16T14:45:24;2.10;;;1.45;;
27025;SDS011;14565;48.626;8.978;2022-10-16T14:48:14;4.05;;;1.80;;
27025;SDS011;14565;48.626;8.978;2022-10-16T14:50:41;3.47;;;1.30;;
27025;SDS011;14565;48.626;8.978;2022-10-16T14:53:09;2.47;;;1.50;;
27025;SDS011;14565;48.626;8.978;2022-10-16T14:55:37;4.28;;;1.60;;
27025;SDS011;14565;48.626;8.978;2022-10-16T14:58:03;3.10;;;1.70;;
27025;SDS011;14565;48.626;8.978;2022-10-16T15:00:29;5.03;;;1.75;;
27025;SDS011;14565;48.626;8.978;2022-10-16T15:02:55;3.05;;;1.67;;
27025;SDS011;14565;48.626;8.978;2022-10-16T15:05:21;2.72;;;2.50;;
27025;SDS011;14565;48.626;8.978;2022-10-16T15:07:49;8.57;;;2.00;;
27025;SDS011;14565;48.626;8.978;2022-10-16T15:10:16;1.55;;;1.45;;
27025;SDS011;14565;48.626;8.978;2022-10-16T15:12:42;4.40;;;1.52;;
27025;SDS011;14565;48.626;8.978;2022-10-16T15:18:03;6.82;;;1.65;;
27025;SDS011;14565;48.626;8.978;2022-10-16T15:20:34;4.28;;;1.70;;
27025;SDS011;14565;48.626;8.978;2022-10-16T15:23:05;2.78;;;1.38;;
27025;SDS011;14565;48.626;8.978;2022-10-16T15:25:43;1.92;;;1.25;;
27025;SDS011;14565;48.626;8.978;2022-10-16T15:28:09;3.05;;;1.30;;
27025;SDS011;14565;48.626;8.978;2022-10-16T15:30:36;3.77;;;1.97;;
27025;SDS011;14565;48.626;8.978;2022-10-16T15:33:02;12.95;;;4.13;;
27025;SDS011;14565;48.626;8.978;2022-10-16T15:35:29;7.68;;;3.78;;
27025;SDS011;14565;48.626;8.978;2022-10-16T15:37:55;8.25;;;3.30;;
27025;SDS011;14565;48.626;8.978;2022-10-16T15:40:21;5.72;;;3.03;;
27025;SDS011;14565;48.626;8.978;2022-10-16T15:42:47;6.18;;;1.95;;
27025;SDS011;14565;48.626;8.978;2022-10-16T15:45:14;4.22;;;1.95;;
27025;SDS011;14565;48.626;8.978;2022-10-16T15:47:40;2.40;;;2.20;;
27025;SDS011;14565;48.626;8.978;2022-10-16T15:50:08;6.03;;;2.53;;
27025;SDS011;14565;48.626;8.978;2022-10-16T15:52:36;9.02;;;2.60;;
27025;SDS011;14565;48.626;8.978;2022-10-16T15:55:01;3.30;;;1.95;;
27025;SDS011;14565;48.626;8.978;2022-10-16T15:57:28;4.55;;;2.30;;
27025;SDS011;14565;48.626;8.978;2022-10-16T15:59:54;5.53;;;2.40;;
27025;SDS011;14565;48.626;8.978;2022-10-16T16:02:20;7.78;;;3.03;;
27025;SDS011;14565;48.626;8.978;2022-10-16T16:04:45;8.15;;;6.15;;
27025;SDS011;14565;48.626;8.978;2022-10-16T16:07:11;10.05;;;9.05;;
27025;SDS011;14565;48.626;8.978;2022-10-16T16:09:37;11.65;;;10.55;;
27025;SDS011;14565;48.626;8.978;2022-10-16T16:12:03;10.57;;;8.70;;
27025;SDS011;14565;48.626;8.978;2022-10-16T16:14:29;15.45;;;7.75;;
27025;SDS011;14565;48.626;8.978;2022-10-16T16:16:55;23.70;;;17.50;;
27025;SDS011;14565;48.626;8.978;2022-10-16T16:19:21;27.20;;;23.20;;
27025;SDS011;14565;48.626;8.978;2022-10-16T16:21:47;36.83;;;28.30;;
27025;SDS011;14565;48.626;8.978;2022-10-16T16:24:13;26.88;;;20.60;;
27025;SDS011;14565;48.626;8.978;2022-10-16T16:26:39;29.17;;;21.40;;
27025;SDS011;14565;48.626;8.978;2022-10-16T16:29:08;23.50;;;17.33;;
27025;SDS011;14565;48.626;8.978;2022-10-16T16:31:39;15.23;;;7.18;;
27025;SDS011;14565;48.626;8.978;2022-10-16T16:34:05;19.35;;;13.25;;
27025;SDS011;14565;48.626;8.978;2022-10-16T16:36:31;23.70;;;16.42;;
27025;SDS011;14565;48.626;8.978;2022-10-16T16:38:58;47.38;;;38.45;;
27025;SDS011;14565;48.626;8.978;2022-10-16T16:41:25;22.30;;;16.88;;
27025;SDS011;14565;48.626;8.978;2022-10-16T16:43:53;13.93;;;9.50;;
27025;SDS011;14565;48.626;8.978;2022-10-16T16:46:19;4.57;;;3.28;;
27025;SDS011;14565;48.626;8.978;2022-10-16T16:48:46;9.52;;;2.90;;
27025;SDS011;14565;48.626;8.978;2022-10-16T16:51:15;8.85;;;3.15;;
27025;SDS011;14565;48.626;8.978;2022-10-16T16:53:43;5.03;;;2.80;;
27025;SDS011;14565;48.626;8.978;2022-10-16T16:56:10;5.45;;;2.80;;
27025;SDS011;14565;48.626;8.978;2022-10-16T16:58:35;5.82;;;2.72;;
27025;SDS011;14565;48.626;8.978;2022-10-16T17:01:01;5.72;;;2.40;;
27025;SDS011;14565;48.626;8.978;2022-10-16T17:03:28;3.47;;;1.98;;
27025;SDS011;14565;48.626;8.978;2022-10-16T17:05:56;3.13;;;2.22;;
27025;SDS011;14565;48.626;8.978;2022-10-16T17:08:22;5.03;;;1.92;;
27025;SDS011;14565;48.626;8.978;2022-10-16T17:10:48;3.53;;;2.03;;
27025;SDS011;14565;48.626;8.978;2022-10-16T17:13:17;2.75;;;1.80;;
27025;SDS011;14565;48.626;8.978;2022-10-16T17:15:48;3.85;;;2.08;;
27025;SDS011;14565;48.626;8.978;2022-10-16T17:18:14;5.22;;;2.25;;
27025;SDS011;14565;48.626;8.978;2022-10-16T17:20:41;5.65;;;2.10;;
27025;SDS011;14565;48.626;8.978;2022-10-16T17:23:07;2.33;;;2.10;;
27025;SDS011;14565;48.626;8.978;2022-10-16T17:25:40;3.40;;;1.77;;
27025;SDS011;14565;48.626;8.978;2022-10-16T17:28:07;7.85;;;2.20;;
27025;SDS011;14565;48.626;8.978;2022-10-16T17:30:36;5.18;;;2.33;;
27025;SDS011;14565;48.626;8.978;2022-10-16T17:33:02;7.22;;;2.50;;